createdAt,value
2022-12-24T00:01:38.010Z,14.40
2022-12-24T00:04:06.461Z,17.15
2022-12-24T00:06:35.355Z,11.27
2022-12-24T00:09:03.894Z,12.80
2022-12-24T00:11:32.360Z,15.70
2022-12-24T00:14:00.878Z,12.27
2022-12-24T00:16:29.487Z,11.43
2022-12-24T00:18:57.983Z,16.13
2022-12-24T00:21:26.436Z,15.25
2022-12-24T00:23:54.877Z,14.30
2022-12-24T00:26:23.324Z,9.07
2022-12-24T00:28:51.716Z,12.38
2022-12-24T00:31:20.300Z,13.20
2022-12-24T00:33:49.159Z,14.73
2022-12-24T00:36:19.068Z,14.18
2022-12-24T00:38:47.849Z,17.15
2022-12-24T00:41:26.159Z,12.38
2022-12-24T00:44:06.147Z,15.57
2022-12-24T00:46:35.214Z,13.35
2022-12-24T00:49:05.107Z,11.38
2022-12-24T00:51:35.516Z,19.17
2022-12-24T00:54:04.772Z,12.40
2022-12-24T00:56:33.939Z,13.68
2022-12-24T00:59:02.446Z,14.38
2022-12-24T01:01:30.926Z,16.90
2022-12-24T01:04:17.971Z,10.57
2022-12-24T01:06:46.555Z,13.63
2022-12-24T01:09:15.008Z,12.65
2022-12-24T01:11:43.594Z,13.43
2022-12-24T01:14:12.135Z,11.93
2022-12-24T01:16:40.583Z,14.73
2022-12-24T01:19:09.223Z,13.60
2022-12-24T01:21:37.756Z,14.13
2022-12-24T01:24:06.409Z,16.33
2022-12-24T01:26:34.747Z,11.77
2022-12-24T01:29:03.184Z,11.20
2022-12-24T01:31:31.609Z,10.82
2022-12-24T01:34:00.208Z,15.27
2022-12-24T01:36:28.666Z,12.45
2022-12-24T01:38:57.136Z,14.88
2022-12-24T01:41:44.624Z,13.20
2022-12-24T01:44:36.978Z,13.57
2022-12-24T01:47:16.311Z,15.25
2022-12-24T01:49:53.563Z,11.90
2022-12-24T01:52:26.934Z,14.45
2022-12-24T01:55:01.061Z,21.05
2022-12-24T01:57:33.384Z,15.75
2022-12-24T02:00:06.240Z,13.95
2022-12-24T02:02:35.362Z,18.50
2022-12-24T02:05:09.935Z,16.38
2022-12-24T02:07:39.085Z,13.85
2022-12-24T02:10:10.086Z,14.77
2022-12-24T02:12:40.487Z,15.65
2022-12-24T02:15:11.929Z,15.15
2022-12-24T02:17:54.574Z,12.05
2022-12-24T02:20:53.807Z,14.70
2022-12-24T02:23:50.293Z,13.82
2022-12-24T02:26:30.909Z,13.43
2022-12-24T02:29:30.293Z,21.70
2022-12-24T02:32:01.686Z,11.90
2022-12-24T02:34:40.391Z,12.70
2022-12-24T02:37:44.578Z,12.73
2022-12-24T02:40:33.487Z,12.63
2022-12-24T02:43:08.290Z,14.55
2022-12-24T02:45:40.247Z,10.30
2022-12-24T02:48:10.296Z,18.98
2022-12-24T02:50:38.717Z,20.50
2022-12-24T02:53:09.701Z,16.08
2022-12-24T02:56:12.213Z,11.70
2022-12-24T02:58:59.168Z,10.10
2022-12-24T03:01:36.831Z,15.43
2022-12-24T03:04:16.515Z,13.73
2022-12-24T03:06:58.010Z,12.77
2022-12-24T03:09:52.409Z,11.67
2022-12-24T03:12:26.723Z,12.82
2022-12-24T03:14:55.680Z,10.60
2022-12-24T03:17:24.173Z,12.43
2022-12-24T03:19:55.312Z,15.80
2022-12-24T03:22:25.589Z,8.38
2022-12-24T03:24:54.032Z,12.48
2022-12-24T03:27:25.072Z,14.30
2022-12-24T03:29:53.677Z,12.27
2022-12-24T03:32:28.767Z,9.48
2022-12-24T03:34:57.322Z,10.25
2022-12-24T03:37:26.732Z,10.70
2022-12-24T03:39:55.302Z,9.70
2022-12-24T03:42:23.675Z,9.50
2022-12-24T03:44:52.130Z,10.38
2022-12-24T03:47:20.575Z,12.98
2022-12-24T03:49:49.108Z,9.23
2022-12-24T03:52:17.503Z,8.23
2022-12-24T03:54:45.912Z,8.10
2022-12-24T03:57:14.308Z,14.88
2022-12-24T03:59:42.695Z,8.98
2022-12-24T04:02:11.236Z,14.38
2022-12-24T04:04:39.831Z,12.27
2022-12-24T04:07:08.443Z,8.48
2022-12-24T04:09:36.986Z,13.93
2022-12-24T04:12:05.533Z,11.70
2022-12-24T04:14:34.031Z,8.25
2022-12-24T04:17:02.551Z,16.70
2022-12-24T04:19:30.998Z,9.43
2022-12-24T04:21:59.500Z,10.45
2022-12-24T04:24:27.975Z,9.80
2022-12-24T04:26:56.422Z,11.32
2022-12-24T04:29:25.009Z,10.07
2022-12-24T04:31:53.588Z,9.80
2022-12-24T04:34:22.113Z,10.35
2022-12-24T04:36:50.522Z,16.02
2022-12-24T04:39:18.938Z,11.65
2022-12-24T04:41:47.459Z,9.70
2022-12-24T04:44:15.876Z,12.68
2022-12-24T04:46:44.452Z,11.70
2022-12-24T04:49:12.988Z,9.85
2022-12-24T04:51:41.386Z,10.73
2022-12-24T04:54:09.933Z,13.20
2022-12-24T04:56:38.483Z,11.18
2022-12-24T04:59:06.938Z,8.70
2022-12-24T05:01:35.613Z,11.48
2022-12-24T05:04:04.170Z,10.15
2022-12-24T05:06:33.140Z,14.68
2022-12-24T05:09:01.694Z,16.70
2022-12-24T05:11:30.828Z,12.07
2022-12-24T05:13:59.449Z,16.60
2022-12-24T05:16:27.926Z,14.45
2022-12-24T05:18:56.363Z,9.80
2022-12-24T05:21:25.343Z,18.65
2022-12-24T05:24:12.445Z,10.48
2022-12-24T05:26:44.808Z,10.80
2022-12-24T05:29:13.373Z,11.57
2022-12-24T05:31:43.532Z,13.65
2022-12-24T05:34:13.715Z,13.57
2022-12-24T05:36:43.134Z,9.75
2022-12-24T05:39:16.290Z,12.68
2022-12-24T05:41:46.078Z,7.47
2022-12-24T05:44:16.226Z,17.88
2022-12-24T05:46:45.270Z,10.15
2022-12-24T05:49:14.322Z,11.43
2022-12-24T05:51:42.729Z,12.25
2022-12-24T05:54:11.492Z,8.95
2022-12-24T05:56:39.922Z,10.25
2022-12-24T05:59:08.350Z,12.32
2022-12-24T06:01:36.831Z,14.82
2022-12-24T06:04:05.424Z,9.93
2022-12-24T06:06:33.883Z,11.50
2022-12-24T06:09:02.268Z,18.52
2022-12-24T06:11:31.045Z,13.05
2022-12-24T06:13:59.534Z,11.70
2022-12-24T06:16:28.108Z,13.57
2022-12-24T06:18:56.598Z,11.32
2022-12-24T06:21:25.109Z,12.85
2022-12-24T06:23:53.531Z,14.05
2022-12-24T06:26:22.930Z,9.35
2022-12-24T06:28:52.290Z,6.53
2022-12-24T06:31:23.248Z,10.35
2022-12-24T06:33:52.740Z,9.85
2022-12-24T06:36:25.519Z,10.48
2022-12-24T06:38:55.115Z,16.45
2022-12-24T06:41:24.159Z,9.20
2022-12-24T06:43:53.316Z,11.38
2022-12-24T06:46:22.258Z,9.45
2022-12-24T06:48:50.937Z,11.32
2022-12-24T06:51:19.875Z,11.75
2022-12-24T06:53:50.755Z,9.57
2022-12-24T06:56:20.177Z,14.38
2022-12-24T06:58:49.159Z,11.63
2022-12-24T07:01:19.550Z,11.75
2022-12-24T07:03:48.582Z,8.75
2022-12-24T07:06:25.372Z,10.75
2022-12-24T07:08:53.895Z,11.05
2022-12-24T07:11:24.176Z,13.27
2022-12-24T07:13:52.677Z,12.90
2022-12-24T07:16:21.790Z,10.02
2022-12-24T07:18:50.361Z,11.10
2022-12-24T07:21:18.863Z,11.32
2022-12-24T07:23:47.426Z,13.02
2022-12-24T07:26:15.800Z,12.68
2022-12-24T07:28:44.331Z,11.15
2022-12-24T07:31:12.818Z,15.45
2022-12-24T07:33:41.386Z,13.50
2022-12-24T07:36:15.866Z,14.43
2022-12-24T07:38:44.536Z,15.32
2022-12-24T07:41:13.428Z,14.27
2022-12-24T07:43:41.811Z,11.20
2022-12-24T07:46:10.412Z,13.65
2022-12-24T07:48:39.013Z,16.02
2022-12-24T07:51:07.574Z,13.57
2022-12-24T07:53:36.070Z,15.88
2022-12-24T07:56:09.027Z,11.70
2022-12-24T07:58:41.343Z,11.73
2022-12-24T08:01:10.348Z,11.75
2022-12-24T08:03:39.345Z,13.25
2022-12-24T08:06:08.371Z,11.05
2022-12-24T08:08:37.697Z,13.55
2022-12-24T08:11:06.973Z,12.50
2022-12-24T08:13:35.695Z,9.55
2022-12-24T08:16:05.406Z,10.25
2022-12-24T08:18:34.011Z,13.30
2022-12-24T08:21:02.966Z,12.70
2022-12-24T08:23:31.391Z,10.25
2022-12-24T08:25:59.998Z,11.45
2022-12-24T08:28:29.278Z,11.50
2022-12-24T08:30:59.024Z,15.27
2022-12-24T08:33:27.545Z,11.13
2022-12-24T08:35:56.296Z,11.23
2022-12-24T08:38:24.825Z,9.10
2022-12-24T08:40:54.258Z,11.88
2022-12-24T08:43:23.152Z,11.73
2022-12-24T08:45:51.802Z,9.15
2022-12-24T08:48:20.438Z,11.10
2022-12-24T08:50:48.924Z,14.05
2022-12-24T08:53:17.451Z,17.35
2022-12-24T08:55:49.009Z,9.95
2022-12-24T08:58:22.302Z,16.33
2022-12-24T09:00:50.767Z,9.65
2022-12-24T09:03:25.249Z,13.27
2022-12-24T09:05:56.196Z,13.45
2022-12-24T09:08:24.689Z,12.90
2022-12-24T09:10:53.203Z,11.40
2022-12-24T09:13:21.606Z,10.93
2022-12-24T09:15:54.948Z,13.82
2022-12-24T09:18:25.505Z,13.15
2022-12-24T09:21:06.412Z,13.55
2022-12-24T09:23:36.163Z,11.65
2022-12-24T09:26:06.667Z,14.98
2022-12-24T09:28:35.740Z,14.32
2022-12-24T09:31:05.868Z,17.42
2022-12-24T09:33:37.792Z,17.25
2022-12-24T09:36:07.012Z,18.95
2022-12-24T09:38:36.335Z,15.07
2022-12-24T09:41:13.183Z,15.32
2022-12-24T09:43:48.578Z,17.92
2022-12-24T09:46:30.730Z,11.82
2022-12-24T09:49:06.047Z,13.50
2022-12-24T09:52:02.071Z,16.10
2022-12-24T09:54:52.944Z,14.18
2022-12-24T09:57:34.587Z,15.82
2022-12-24T10:00:04.850Z,13.05
2022-12-24T10:02:33.673Z,15.73
2022-12-24T10:05:02.337Z,14.25
2022-12-24T10:07:48.213Z,11.23
2022-12-24T10:10:37.512Z,13.07
2022-12-24T10:13:23.181Z,15.27
2022-12-24T10:16:18.360Z,11.48
2022-12-24T10:19:02.755Z,13.15
2022-12-24T10:21:44.233Z,14.57
2022-12-24T10:24:24.229Z,13.60
2022-12-24T10:27:17.104Z,16.30
2022-12-24T10:29:49.570Z,12.07
2022-12-24T10:32:36.170Z,12.45
2022-12-24T10:35:17.832Z,14.70
2022-12-24T10:37:48.624Z,9.80
2022-12-24T10:40:28.653Z,14.13
2022-12-24T10:42:57.415Z,13.43
2022-12-24T10:45:35.590Z,15.65
2022-12-24T10:48:09.440Z,17.90
2022-12-24T10:50:43.148Z,17.08
2022-12-24T10:53:21.406Z,12.95
2022-12-24T10:55:50.055Z,15.77
2022-12-24T10:58:20.100Z,13.30
2022-12-24T11:00:53.073Z,12.30
2022-12-24T11:03:30.646Z,17.08
2022-12-24T11:06:20.943Z,12.48
2022-12-24T11:08:50.459Z,12.52
2022-12-24T11:11:21.127Z,10.52
2022-12-24T11:13:50.597Z,10.88
2022-12-24T11:16:31.924Z,14.20
2022-12-24T11:19:04.156Z,13.93
2022-12-24T11:24:12.261Z,14.27
2022-12-24T11:26:42.953Z,15.88
2022-12-24T11:29:28.501Z,12.20
2022-12-24T11:32:20.265Z,14.43
2022-12-24T11:34:49.094Z,15.85
2022-12-24T11:37:21.973Z,16.25
2022-12-24T11:40:02.044Z,13.95
2022-12-24T11:42:35.258Z,10.95
2022-12-24T11:45:36.111Z,12.10
2022-12-24T11:48:26.291Z,12.15
2022-12-24T11:51:06.186Z,17.80
2022-12-24T11:53:42.062Z,14.20
2022-12-24T11:56:30.976Z,15.50
2022-12-24T11:59:09.547Z,21.77
2022-12-24T12:01:49.303Z,12.95
2022-12-24T12:04:22.875Z,12.48
2022-12-24T12:07:00.299Z,12.63
2022-12-24T12:09:32.841Z,12.05
2022-12-24T12:12:09.681Z,12.38
2022-12-24T12:14:48.089Z,13.95
2022-12-24T12:17:39.746Z,11.35
2022-12-24T12:20:18.784Z,15.03
2022-12-24T12:22:56.524Z,15.57
2022-12-24T12:25:37.942Z,14.57
2022-12-24T12:28:18.659Z,9.60
2022-12-24T12:30:54.359Z,14.35
2022-12-24T12:33:29.579Z,16.23
2022-12-24T12:36:01.890Z,14.40
2022-12-24T12:38:30.697Z,14.68
2022-12-24T12:41:11.917Z,13.73
2022-12-24T12:43:49.310Z,14.63
2022-12-24T12:46:41.741Z,11.27
2022-12-24T12:49:52.032Z,11.27
2022-12-24T12:52:49.180Z,12.70
2022-12-24T12:55:52.084Z,12.57
2022-12-24T12:58:27.475Z,15.25
2022-12-24T13:01:05.346Z,11.30
2022-12-24T13:03:42.673Z,10.73
2022-12-24T13:06:33.781Z,12.45
2022-12-24T13:09:25.643Z,10.93
2022-12-24T13:12:03.252Z,11.38
2022-12-24T13:14:43.795Z,13.63
2022-12-24T13:17:46.409Z,14.40
2022-12-24T13:20:30.688Z,14.40
2022-12-24T13:23:08.667Z,11.48
2022-12-24T13:25:41.450Z,12.80
2022-12-24T13:28:22.795Z,16.38
2022-12-24T13:31:16.983Z,12.02
2022-12-24T13:33:47.486Z,14.68
2022-12-24T13:36:17.685Z,11.07
2022-12-24T13:38:59.951Z,13.77
2022-12-24T13:44:14.748Z,10.32
2022-12-24T13:47:01.108Z,9.77
2022-12-24T13:49:49.599Z,9.48
2022-12-24T13:52:30.501Z,12.95
2022-12-24T13:54:59.084Z,12.60
2022-12-24T13:58:07.722Z,13.85
2022-12-24T14:00:51.569Z,10.38
2022-12-24T14:03:28.521Z,15.90
2022-12-24T14:06:05.473Z,9.07
2022-12-24T14:08:40.235Z,9.50
2022-12-24T14:11:08.613Z,12.57
2022-12-24T14:13:40.019Z,12.93
2022-12-24T14:16:12.993Z,10.98
2022-12-24T14:18:50.580Z,11.98
2022-12-24T14:21:28.488Z,11.13
2022-12-24T14:24:05.281Z,9.80
2022-12-24T14:26:36.374Z,12.27
2022-12-24T14:29:25.048Z,13.93
2022-12-24T14:31:56.595Z,12.90
2022-12-24T14:34:26.424Z,10.15
2022-12-24T14:36:56.363Z,9.27
2022-12-24T14:39:33.909Z,12.30
2022-12-24T14:42:23.602Z,10.90
2022-12-24T14:45:14.919Z,13.52
2022-12-24T14:47:49.192Z,11.88
2022-12-24T14:50:26.871Z,10.13
2022-12-24T14:53:19.946Z,10.60
2022-12-24T14:55:49.645Z,10.38
2022-12-24T14:58:30.520Z,12.73
2022-12-24T15:01:02.077Z,12.48
2022-12-24T15:03:33.109Z,10.20
2022-12-24T15:06:09.181Z,10.88
2022-12-24T15:08:43.824Z,14.15
2022-12-24T15:11:19.377Z,10.82
2022-12-24T15:13:54.807Z,10.68
2022-12-24T15:16:27.112Z,9.05
2022-12-24T15:18:59.750Z,10.80
2022-12-24T15:21:41.207Z,9.88
2022-12-24T15:24:33.174Z,8.52
2022-12-24T15:27:16.049Z,12.32
2022-12-24T15:29:46.971Z,15.02
2022-12-24T15:32:18.954Z,11.35
2022-12-24T15:34:50.524Z,11.75
2022-12-24T15:37:29.612Z,15.18
2022-12-24T15:40:09.018Z,11.73
2022-12-24T15:42:42.518Z,12.80
2022-12-24T15:45:28.788Z,11.20
2022-12-24T15:48:00.459Z,10.38
2022-12-24T15:50:32.933Z,10.82
2022-12-24T15:53:21.097Z,10.88
2022-12-24T15:56:12.112Z,11.27
2022-12-24T15:58:43.353Z,13.23
2022-12-24T16:01:15.585Z,8.70
2022-12-24T16:03:50.316Z,15.25
2022-12-24T16:06:20.012Z,12.52
2022-12-24T16:08:50.930Z,14.77
2022-12-24T16:11:20.789Z,12.13
2022-12-24T16:13:49.135Z,21.73
2022-12-24T16:16:22.539Z,14.05
2022-12-24T16:18:56.991Z,16.17
2022-12-24T16:21:31.987Z,11.40
2022-12-24T16:24:22.535Z,12.43
2022-12-24T16:26:51.809Z,11.15
2022-12-24T16:29:22.404Z,10.77
2022-12-24T16:31:56.232Z,13.32
2022-12-24T16:34:30.117Z,13.55
2022-12-24T16:37:00.287Z,12.57
2022-12-24T16:39:33.838Z,15.88
2022-12-24T16:42:22.611Z,14.43
2022-12-24T16:44:53.473Z,12.48
2022-12-24T16:47:25.786Z,11.88
2022-12-24T16:49:54.350Z,21.77
2022-12-24T16:52:28.994Z,14.35
2022-12-24T16:54:57.777Z,12.40
2022-12-24T16:57:26.769Z,16.48
2022-12-24T16:59:55.229Z,16.08
2022-12-24T17:02:25.424Z,11.65
2022-12-24T17:04:55.166Z,12.38
2022-12-24T17:07:23.722Z,18.50
2022-12-24T17:09:52.269Z,16.13
2022-12-24T17:12:21.641Z,15.38
2022-12-24T17:14:50.111Z,25.85
2022-12-24T17:17:29.684Z,16.60
2022-12-24T17:19:58.499Z,15.75
2022-12-24T17:22:28.047Z,13.00
2022-12-24T17:24:56.912Z,15.05
2022-12-24T17:27:25.420Z,14.02
2022-12-24T17:29:54.048Z,18.67
2022-12-24T17:32:22.573Z,17.00
2022-12-24T17:34:50.966Z,19.50
2022-12-24T17:37:19.668Z,16.30
2022-12-24T17:39:49.144Z,16.13
2022-12-24T17:42:17.653Z,14.98
2022-12-24T17:44:46.161Z,14.95
2022-12-24T17:47:14.741Z,21.80
2022-12-24T17:49:43.234Z,18.48
2022-12-24T17:52:12.206Z,16.63
2022-12-24T17:54:40.665Z,18.85
2022-12-24T17:57:09.189Z,16.98
2022-12-24T17:59:37.692Z,15.90
2022-12-24T18:02:06.735Z,19.17
2022-12-24T18:04:35.275Z,15.95
2022-12-24T18:07:03.774Z,15.55
2022-12-24T18:09:32.343Z,18.38
2022-12-24T18:12:01.146Z,20.92
2022-12-24T18:14:29.579Z,17.55
2022-12-24T18:16:58.038Z,24.25
2022-12-24T18:19:26.705Z,21.33
2022-12-24T18:21:55.219Z,19.45
2022-12-24T18:24:23.696Z,18.33
2022-12-24T18:26:52.158Z,22.77
2022-12-24T18:29:20.703Z,26.77
2022-12-24T18:31:49.218Z,31.00
2022-12-24T18:34:18.301Z,39.58
2022-12-24T18:36:52.888Z,24.65
2022-12-24T18:39:23.548Z,22.98
2022-12-24T18:41:52.147Z,25.35
2022-12-24T18:44:25.408Z,39.97
2022-12-24T18:46:54.405Z,24.85
2022-12-24T18:49:23.027Z,24.95
2022-12-24T18:51:51.547Z,23.85
2022-12-24T18:54:20.278Z,19.50
2022-12-24T18:56:51.872Z,23.30
2022-12-24T18:59:20.359Z,18.33
2022-12-24T19:01:49.126Z,22.83
2022-12-24T19:04:17.880Z,24.80
2022-12-24T19:06:52.742Z,22.00
2022-12-24T19:09:22.481Z,20.92
2022-12-24T19:11:50.942Z,20.58
2022-12-24T19:14:22.683Z,20.05
2022-12-24T19:16:51.220Z,17.00
2022-12-24T19:19:23.900Z,19.48
2022-12-24T19:21:52.362Z,20.35
2022-12-24T19:24:20.851Z,22.70
2022-12-24T19:26:49.471Z,23.30
2022-12-24T19:29:17.956Z,20.92
2022-12-24T19:31:47.495Z,22.77
2022-12-24T19:34:16.133Z,18.42
2022-12-24T19:36:44.663Z,27.05
2022-12-24T19:39:13.125Z,24.33
2022-12-24T19:41:41.960Z,26.88
2022-12-24T19:44:11.146Z,40.22
2022-12-24T19:46:40.057Z,25.25
2022-12-24T19:49:11.288Z,20.13
2022-12-24T19:51:39.876Z,16.43
2022-12-24T19:54:18.685Z,20.63
2022-12-24T19:56:47.754Z,15.50
2022-12-24T19:59:16.426Z,18.73
2022-12-24T20:01:46.982Z,17.55
2022-12-24T20:04:18.382Z,16.88
2022-12-24T20:06:49.815Z,14.17
2022-12-24T20:09:20.782Z,20.08
2022-12-24T20:11:52.351Z,21.70
2022-12-24T20:14:20.757Z,22.67
2022-12-24T20:16:50.000Z,17.55
2022-12-24T20:19:18.492Z,14.93
2022-12-24T20:21:46.969Z,23.13
2022-12-24T20:24:16.020Z,21.60
2022-12-24T20:26:44.511Z,33.50
2022-12-24T20:29:13.045Z,17.63
2022-12-24T20:31:41.709Z,20.27
2022-12-24T20:34:10.583Z,17.45
2022-12-24T20:36:39.212Z,22.42
2022-12-24T20:39:07.915Z,18.48
2022-12-24T20:41:36.523Z,35.47
2022-12-24T20:44:05.619Z,34.15
2022-12-24T20:46:34.216Z,33.67
2022-12-24T20:49:02.812Z,15.40
2022-12-24T20:51:31.462Z,32.90
2022-12-24T20:54:01.873Z,21.90
2022-12-24T20:56:31.121Z,21.15
2022-12-24T20:59:01.441Z,62.55
2022-12-24T21:01:30.247Z,33.03
2022-12-24T21:04:04.234Z,23.17
2022-12-24T21:06:34.814Z,21.77
2022-12-24T21:09:04.107Z,37.63
2022-12-24T21:11:51.330Z,52.10
2022-12-24T21:14:23.548Z,26.65
2022-12-24T21:19:24.491Z,25.58
2022-12-24T21:21:53.272Z,17.48
2022-12-24T21:24:21.913Z,22.52
2022-12-24T21:26:50.389Z,16.02
2022-12-24T21:29:18.877Z,18.70
2022-12-24T21:31:47.464Z,44.28
2022-12-24T21:34:15.883Z,25.08
2022-12-24T21:36:44.246Z,21.55
2022-12-24T21:39:12.752Z,20.73
2022-12-24T21:41:41.703Z,14.40
2022-12-24T21:44:10.230Z,14.85
2022-12-24T21:46:38.696Z,17.45
2022-12-24T21:49:28.369Z,23.40
2022-12-24T21:51:58.824Z,31.33
2022-12-24T21:54:28.375Z,25.67
2022-12-24T21:57:18.956Z,20.30
2022-12-24T21:59:50.330Z,25.52
2022-12-24T22:02:20.386Z,30.58
2022-12-24T22:04:48.892Z,18.85
2022-12-24T22:07:41.975Z,17.02
2022-12-24T22:10:31.852Z,16.25
2022-12-24T22:13:03.554Z,18.00
2022-12-24T22:15:32.331Z,21.65
2022-12-24T22:18:00.714Z,20.98
2022-12-24T22:20:29.262Z,21.63
2022-12-24T22:22:57.735Z,39.85
2022-12-24T22:25:28.108Z,25.52
2022-12-24T22:27:56.708Z,24.35
2022-12-24T22:30:25.099Z,76.97
2022-12-24T22:32:53.527Z,34.55
2022-12-24T22:35:21.909Z,29.45
2022-12-24T22:37:54.572Z,15.05
2022-12-24T22:40:28.385Z,24.08
2022-12-24T22:42:56.867Z,29.70
2022-12-24T22:45:25.271Z,24.60
2022-12-24T22:47:53.787Z,12.80
2022-12-24T22:50:22.891Z,19.73
2022-12-24T22:52:52.560Z,16.95
2022-12-24T22:55:21.792Z,12.02
2022-12-24T22:57:50.209Z,22.33
2022-12-24T23:00:40.487Z,18.13
2022-12-24T23:03:10.223Z,11.20
2022-12-24T23:05:39.163Z,11.35
2022-12-24T23:08:08.197Z,12.75
2022-12-24T23:10:37.350Z,19.92
2022-12-24T23:13:44.834Z,11.73
2022-12-24T23:16:13.288Z,10.90
2022-12-24T23:18:41.671Z,11.25
2022-12-24T23:21:10.151Z,13.48
2022-12-24T23:23:38.618Z,16.98
2022-12-24T23:26:12.956Z,10.85
2022-12-24T23:28:41.667Z,10.73
2022-12-24T23:31:10.758Z,8.77
2022-12-24T23:33:39.374Z,10.85
2022-12-24T23:36:08.804Z,9.02
2022-12-24T23:38:37.405Z,10.07
2022-12-24T23:41:08.032Z,12.68
2022-12-24T23:43:37.535Z,10.45
2022-12-24T23:46:06.177Z,10.25
2022-12-24T23:48:34.678Z,9.48
2022-12-24T23:51:13.374Z,10.35
2022-12-24T23:53:41.911Z,9.35
2022-12-24T23:56:11.706Z,12.27
2022-12-24T23:58:41.506Z,10.48
